sensor_id;sensor_type;location;lat;lon;timestamp;temperature;humidity
67555;HTU21D;54385;53.516;49.456;2023-04-24T00:00:40;11.68;44.89
67555;HTU21D;54385;53.516;49.456;2023-04-24T00:03:07;11.63;44.91
67555;HTU21D;54385;53.516;49.456;2023-04-24T00:05:33;11.62;44.99
67555;HTU21D;54385;53.516;49.456;2023-04-24T00:07:59;11.63;45.05
67555;HTU21D;54385;53.516;49.456;2023-04-24T00:10:26;11.63;44.80
67555;HTU21D;54385;53.516;49.456;2023-04-24T00:12:53;11.61;45.08
67555;HTU21D;54385;53.516;49.456;2023-04-24T00:15:19;11.59;44.84
67555;HTU21D;54385;53.516;49.456;2023-04-24T00:17:45;11.54;45.33
67555;HTU21D;54385;53.516;49.456;2023-04-24T00:20:12;11.53;45.16
67555;HTU21D;54385;53.516;49.456;2023-04-24T00:22:39;11.53;45.46
67555;HTU21D;54385;53.516;49.456;2023-04-24T00:25:06;11.54;45.21
67555;HTU21D;54385;53.516;49.456;2023-04-24T00:27:32;11.57;45.22
67555;HTU21D;54385;53.516;49.456;2023-04-24T00:29:58;11.54;45.58
67555;HTU21D;54385;53.516;49.456;2023-04-24T00:32:24;11.56;45.30
67555;HTU21D;54385;53.516;49.456;2023-04-24T00:34:51;11.57;45.32
67555;HTU21D;54385;53.516;49.456;2023-04-24T00:37:17;11.55;45.61
67555;HTU21D;54385;53.516;49.456;2023-04-24T00:39:43;11.49;45.88
67555;HTU21D;54385;53.516;49.456;2023-04-24T00:42:09;11.46;45.99
67555;HTU21D;54385;53.516;49.456;2023-04-24T00:44:37;11.43;45.97
67555;HTU21D;54385;53.516;49.456;2023-04-24T00:47:03;11.38;46.03
67555;HTU21D;54385;53.516;49.456;2023-04-24T00:49:30;11.34;46.17
67555;HTU21D;54385;53.516;49.456;2023-04-24T00:51:56;11.37;45.80
67555;HTU21D;54385;53.516;49.456;2023-04-24T00:54:25;11.37;45.80
67555;HTU21D;54385;53.516;49.456;2023-04-24T00:56:51;11.36;45.90
67555;HTU21D;54385;53.516;49.456;2023-04-24T00:59:18;11.36;45.89
67555;HTU21D;54385;53.516;49.456;2023-04-24T01:01:45;11.34;45.88
67555;HTU21D;54385;53.516;49.456;2023-04-24T01:04:12;11.36;45.89
67555;HTU21D;54385;53.516;49.456;2023-04-24T01:06:39;11.38;45.88
67555;HTU21D;54385;53.516;49.456;2023-04-24T01:09:07;11.36;45.85
67555;HTU21D;54385;53.516;49.456;2023-04-24T01:11:37;11.31;46.12
67555;HTU21D;54385;53.516;49.456;2023-04-24T01:14:03;11.28;46.13
67555;HTU21D;54385;53.516;49.456;2023-04-24T01:16:30;11.30;46.03
67555;HTU21D;54385;53.516;49.456;2023-04-24T01:18:57;11.29;46.03
67555;HTU21D;54385;53.516;49.456;2023-04-24T01:21:25;11.30;46.09
67555;HTU21D;54385;53.516;49.456;2023-04-24T01:23:53;11.25;46.33
67555;HTU21D;54385;53.516;49.456;2023-04-24T01:26:22;11.22;46.41
67555;HTU21D;54385;53.516;49.456;2023-04-24T01:28:49;11.19;46.60
67555;HTU21D;54385;53.516;49.456;2023-04-24T01:31:15;11.14;46.67
67555;HTU21D;54385;53.516;49.456;2023-04-24T01:33:43;11.08;46.97
67555;HTU21D;54385;53.516;49.456;2023-04-24T01:36:11;11.04;47.04
67555;HTU21D;54385;53.516;49.456;2023-04-24T01:38:38;10.98;47.27
67555;HTU21D;54385;53.516;49.456;2023-04-24T01:41:04;10.95;47.50
67555;HTU21D;54385;53.516;49.456;2023-04-24T01:43:30;10.90;47.51
67555;HTU21D;54385;53.516;49.456;2023-04-24T01:45:57;10.87;47.51
67555;HTU21D;54385;53.516;49.456;2023-04-24T01:48:24;10.81;47.73
67555;HTU21D;54385;53.516;49.456;2023-04-24T01:50:51;10.78;47.86
67555;HTU21D;54385;53.516;49.456;2023-04-24T01:53:17;10.74;48.30
67555;HTU21D;54385;53.516;49.456;2023-04-24T01:55:44;10.69;48.21
67555;HTU21D;54385;53.516;49.456;2023-04-24T01:58:10;10.67;48.53
67555;HTU21D;54385;53.516;49.456;2023-04-24T02:00:36;10.63;48.42
67555;HTU21D;54385;53.516;49.456;2023-04-24T02:03:03;10.59;48.51
67555;HTU21D;54385;53.516;49.456;2023-04-24T02:05:32;10.62;48.68
67555;HTU21D;54385;53.516;49.456;2023-04-24T02:07:58;10.63;48.58
67555;HTU21D;54385;53.516;49.456;2023-04-24T02:10:25;10.64;48.62
67555;HTU21D;54385;53.516;49.456;2023-04-24T02:12:51;10.66;48.84
67555;HTU21D;54385;53.516;49.456;2023-04-24T02:15:18;10.69;48.55
67555;HTU21D;54385;53.516;49.456;2023-04-24T02:17:44;10.73;48.49
67555;HTU21D;54385;53.516;49.456;2023-04-24T02:20:11;10.75;48.53
67555;HTU21D;54385;53.516;49.456;2023-04-24T02:22:39;10.79;48.47
67555;HTU21D;54385;53.516;49.456;2023-04-24T02:25:05;10.83;48.33
67555;HTU21D;54385;53.516;49.456;2023-04-24T02:27:32;10.88;48.41
67555;HTU21D;54385;53.516;49.456;2023-04-24T02:29:58;10.90;48.78
67555;HTU21D;54385;53.516;49.456;2023-04-24T02:32:24;10.95;48.44
67555;HTU21D;54385;53.516;49.456;2023-04-24T02:34:51;10.93;48.78
67555;HTU21D;54385;53.516;49.456;2023-04-24T02:37:17;10.93;49.22
67555;HTU21D;54385;53.516;49.456;2023-04-24T02:39:44;10.92;49.05
67555;HTU21D;54385;53.516;49.456;2023-04-24T02:42:10;10.95;49.31
67555;HTU21D;54385;53.516;49.456;2023-04-24T02:44:36;10.96;49.11
67555;HTU21D;54385;53.516;49.456;2023-04-24T02:47:02;10.98;49.59
67555;HTU21D;54385;53.516;49.456;2023-04-24T02:49:29;11.01;49.27
67555;HTU21D;54385;53.516;49.456;2023-04-24T02:51:55;11.05;49.71
67555;HTU21D;54385;53.516;49.456;2023-04-24T02:54:22;11.10;49.13
67555;HTU21D;54385;53.516;49.456;2023-04-24T02:56:48;11.14;49.10
67555;HTU21D;54385;53.516;49.456;2023-04-24T02:59:14;11.22;48.78
67555;HTU21D;54385;53.516;49.456;2023-04-24T03:01:40;11.27;48.66
67555;HTU21D;54385;53.516;49.456;2023-04-24T03:04:06;11.32;48.53
67555;HTU21D;54385;53.516;49.456;2023-04-24T03:06:33;11.39;48.27
67555;HTU21D;54385;53.516;49.456;2023-04-24T03:09:02;11.47;48.01
67555;HTU21D;54385;53.516;49.456;2023-04-24T03:11:29;11.57;47.86
67555;HTU21D;54385;53.516;49.456;2023-04-24T03:13:55;11.64;48.00
67555;HTU21D;54385;53.516;49.456;2023-04-24T03:16:22;11.73;47.73
67555;HTU21D;54385;53.516;49.456;2023-04-24T03:18:48;11.84;47.78
67555;HTU21D;54385;53.516;49.456;2023-04-24T03:21:15;11.97;47.21
67555;HTU21D;54385;53.516;49.456;2023-04-24T03:23:41;12.10;47.02
67555;HTU21D;54385;53.516;49.456;2023-04-24T03:26:07;12.22;47.09
67555;HTU21D;54385;53.516;49.456;2023-04-24T03:28:34;12.38;46.38
67555;HTU21D;54385;53.516;49.456;2023-04-24T03:31:00;12.53;46.56
67555;HTU21D;54385;53.516;49.456;2023-04-24T03:33:30;12.67;46.05
67555;HTU21D;54385;53.516;49.456;2023-04-24T03:35:57;12.79;45.12
67555;HTU21D;54385;53.516;49.456;2023-04-24T03:38:23;12.95;45.49
67555;HTU21D;54385;53.516;49.456;2023-04-24T03:40:49;13.08;44.10
67555;HTU21D;54385;53.516;49.456;2023-04-24T03:43:16;13.21;43.40
67555;HTU21D;54385;53.516;49.456;2023-04-24T03:45:42;13.30;43.58
67555;HTU21D;54385;53.516;49.456;2023-04-24T03:48:12;13.38;43.18
67555;HTU21D;54385;53.516;49.456;2023-04-24T03:50:41;13.45;42.69
67555;HTU21D;54385;53.516;49.456;2023-04-24T03:53:10;13.54;42.92
67555;HTU21D;54385;53.516;49.456;2023-04-24T03:55:46;13.65;42.71
67555;HTU21D;54385;53.516;49.456;2023-04-24T03:58:13;13.77;42.19
67555;HTU21D;54385;53.516;49.456;2023-04-24T04:00:47;13.90;42.15
67555;HTU21D;54385;53.516;49.456;2023-04-24T04:03:14;13.97;41.83
67555;HTU21D;54385;53.516;49.456;2023-04-24T04:05:41;14.09;41.50
67555;HTU21D;54385;53.516;49.456;2023-04-24T04:08:16;14.15;41.17
67555;HTU21D;54385;53.516;49.456;2023-04-24T04:10:44;14.23;40.96
67555;HTU21D;54385;53.516;49.456;2023-04-24T04:13:12;14.32;40.94
67555;HTU21D;54385;53.516;49.456;2023-04-24T04:15:39;14.41;40.55
67555;HTU21D;54385;53.516;49.456;2023-04-24T04:18:06;14.53;40.11
67555;HTU21D;54385;53.516;49.456;2023-04-24T04:20:39;14.64;40.20
67555;HTU21D;54385;53.516;49.456;2023-04-24T04:23:13;14.74;39.91
67555;HTU21D;54385;53.516;49.456;2023-04-24T04:25:43;14.82;39.79
67555;HTU21D;54385;53.516;49.456;2023-04-24T04:28:09;14.91;39.23
67555;HTU21D;54385;53.516;49.456;2023-04-24T04:30:36;14.97;38.73
67555;HTU21D;54385;53.516;49.456;2023-04-24T04:33:07;14.99;38.84
67555;HTU21D;54385;53.516;49.456;2023-04-24T04:35:38;15.03;38.61
67555;HTU21D;54385;53.516;49.456;2023-04-24T04:38:04;15.14;38.50
67555;HTU21D;54385;53.516;49.456;2023-04-24T04:40:34;15.18;38.30
67555;HTU21D;54385;53.516;49.456;2023-04-24T04:43:00;15.27;38.38
67555;HTU21D;54385;53.516;49.456;2023-04-24T04:45:27;15.36;38.14
67555;HTU21D;54385;53.516;49.456;2023-04-24T04:47:54;15.51;37.77
67555;HTU21D;54385;53.516;49.456;2023-04-24T04:50:23;15.59;37.57
67555;HTU21D;54385;53.516;49.456;2023-04-24T04:53:02;15.58;37.37
67555;HTU21D;54385;53.516;49.456;2023-04-24T04:55:47;15.69;36.84
67555;HTU21D;54385;53.516;49.456;2023-04-24T04:58:17;15.72;36.87
67555;HTU21D;54385;53.516;49.456;2023-04-24T05:00:51;15.82;36.59
67555;HTU21D;54385;53.516;49.456;2023-04-24T05:03:45;15.91;36.73
67555;HTU21D;54385;53.516;49.456;2023-04-24T05:06:18;15.99;36.27
67555;HTU21D;54385;53.516;49.456;2023-04-24T05:08:49;16.03;36.39
67555;HTU21D;54385;53.516;49.456;2023-04-24T05:11:32;16.13;35.79
67555;HTU21D;54385;53.516;49.456;2023-04-24T05:14:00;16.26;35.48
67555;HTU21D;54385;53.516;49.456;2023-04-24T05:16:46;16.29;35.19
67555;HTU21D;54385;53.516;49.456;2023-04-24T05:19:19;16.40;34.71
67555;HTU21D;54385;53.516;49.456;2023-04-24T05:21:45;16.50;35.00
67555;HTU21D;54385;53.516;49.456;2023-04-24T05:24:13;16.64;34.53
67555;HTU21D;54385;53.516;49.456;2023-04-24T05:26:41;16.67;34.69
67555;HTU21D;54385;53.516;49.456;2023-04-24T05:29:10;16.70;34.23
67555;HTU21D;54385;53.516;49.456;2023-04-24T05:31:43;16.69;34.01
67555;HTU21D;54385;53.516;49.456;2023-04-24T05:34:11;16.72;34.09
67555;HTU21D;54385;53.516;49.456;2023-04-24T05:36:44;16.82;34.50
67555;HTU21D;54385;53.516;49.456;2023-04-24T05:39:21;16.91;33.80
67555;HTU21D;54385;53.516;49.456;2023-04-24T05:41:50;16.95;33.72
67555;HTU21D;54385;53.516;49.456;2023-04-24T05:44:20;17.08;33.85
67555;HTU21D;54385;53.516;49.456;2023-04-24T05:46:47;17.17;33.37
67555;HTU21D;54385;53.516;49.456;2023-04-24T05:49:20;17.20;33.47
67555;HTU21D;54385;53.516;49.456;2023-04-24T05:51:49;17.35;33.43
67555;HTU21D;54385;53.516;49.456;2023-04-24T05:54:16;17.32;33.32
67555;HTU21D;54385;53.516;49.456;2023-04-24T05:56:42;17.30;33.24
67555;HTU21D;54385;53.516;49.456;2023-04-24T05:59:16;17.37;32.88
67555;HTU21D;54385;53.516;49.456;2023-04-24T06:01:42;17.43;33.09
67555;HTU21D;54385;53.516;49.456;2023-04-24T06:04:09;17.49;32.93
67555;HTU21D;54385;53.516;49.456;2023-04-24T06:06:36;17.59;32.86
67555;HTU21D;54385;53.516;49.456;2023-04-24T06:09:04;17.64;32.96
67555;HTU21D;54385;53.516;49.456;2023-04-24T06:11:31;17.76;32.92
67555;HTU21D;54385;53.516;49.456;2023-04-24T06:13:58;17.82;32.51
67555;HTU21D;54385;53.516;49.456;2023-04-24T06:16:27;17.96;32.77
67555;HTU21D;54385;53.516;49.456;2023-04-24T06:18:53;18.08;32.06
67555;HTU21D;54385;53.516;49.456;2023-04-24T06:21:21;18.07;32.11
67555;HTU21D;54385;53.516;49.456;2023-04-24T06:23:48;18.11;31.45
67555;HTU21D;54385;53.516;49.456;2023-04-24T06:26:16;18.07;31.04
67555;HTU21D;54385;53.516;49.456;2023-04-24T06:28:42;18.11;31.76
67555;HTU21D;54385;53.516;49.456;2023-04-24T06:31:09;18.17;31.25
67555;HTU21D;54385;53.516;49.456;2023-04-24T06:33:36;18.28;30.74
67555;HTU21D;54385;53.516;49.456;2023-04-24T06:36:02;18.44;30.78
67555;HTU21D;54385;53.516;49.456;2023-04-24T06:38:30;18.49;30.33
67555;HTU21D;54385;53.516;49.456;2023-04-24T06:41:13;18.64;29.14
67555;HTU21D;54385;53.516;49.456;2023-04-24T06:43:39;18.72;29.18
67555;HTU21D;54385;53.516;49.456;2023-04-24T06:46:06;18.73;29.81
67555;HTU21D;54385;53.516;49.456;2023-04-24T06:48:32;18.86;29.91
67555;HTU21D;54385;53.516;49.456;2023-04-24T06:51:02;18.81;29.20
67555;HTU21D;54385;53.516;49.456;2023-04-24T06:53:28;18.80;29.03
67555;HTU21D;54385;53.516;49.456;2023-04-24T06:55:55;18.78;28.70
67555;HTU21D;54385;53.516;49.456;2023-04-24T06:58:32;18.89;28.61
67555;HTU21D;54385;53.516;49.456;2023-04-24T07:01:02;18.98;28.42
67555;HTU21D;54385;53.516;49.456;2023-04-24T07:03:28;19.01;27.98
67555;HTU21D;54385;53.516;49.456;2023-04-24T07:05:55;19.10;27.69
67555;HTU21D;54385;53.516;49.456;2023-04-24T07:08:22;19.17;27.65
67555;HTU21D;54385;53.516;49.456;2023-04-24T07:10:50;19.21;27.82
67555;HTU21D;54385;53.516;49.456;2023-04-24T07:13:17;19.20;27.99
67555;HTU21D;54385;53.516;49.456;2023-04-24T07:15:43;19.30;27.85
67555;HTU21D;54385;53.516;49.456;2023-04-24T07:18:10;19.22;28.69
67555;HTU21D;54385;53.516;49.456;2023-04-24T07:20:36;19.23;27.97
67555;HTU21D;54385;53.516;49.456;2023-04-24T07:23:03;19.22;28.00
67555;HTU21D;54385;53.516;49.456;2023-04-24T07:25:29;19.25;28.37
67555;HTU21D;54385;53.516;49.456;2023-04-24T07:27:57;19.29;27.99
67555;HTU21D;54385;53.516;49.456;2023-04-24T07:30:29;19.29;27.45
67555;HTU21D;54385;53.516;49.456;2023-04-24T07:32:58;19.29;27.09
67555;HTU21D;54385;53.516;49.456;2023-04-24T07:35:26;19.43;27.75
67555;HTU21D;54385;53.516;49.456;2023-04-24T07:37:58;19.48;27.49
67555;HTU21D;54385;53.516;49.456;2023-04-24T07:40:32;19.44;26.97
67555;HTU21D;54385;53.516;49.456;2023-04-24T07:42:59;19.57;27.29
67555;HTU21D;54385;53.516;49.456;2023-04-24T07:45:26;19.69;27.25
67555;HTU21D;54385;53.516;49.456;2023-04-24T07:47:54;19.76;27.87
67555;HTU21D;54385;53.516;49.456;2023-04-24T07:50:20;19.83;26.24
67555;HTU21D;54385;53.516;49.456;2023-04-24T07:52:48;19.95;26.23
67555;HTU21D;54385;53.516;49.456;2023-04-24T07:55:17;19.91;26.26
67555;HTU21D;54385;53.516;49.456;2023-04-24T07:57:44;19.94;26.07
67555;HTU21D;54385;53.516;49.456;2023-04-24T08:00:11;19.97;24.99
67555;HTU21D;54385;53.516;49.456;2023-04-24T08:02:38;20.07;25.33
67555;HTU21D;54385;53.516;49.456;2023-04-24T08:05:05;20.17;26.04
67555;HTU21D;54385;53.516;49.456;2023-04-24T08:07:35;20.24;24.86
67555;HTU21D;54385;53.516;49.456;2023-04-24T08:10:02;20.11;24.36
67555;HTU21D;54385;53.516;49.456;2023-04-24T08:12:36;19.98;24.59
67555;HTU21D;54385;53.516;49.456;2023-04-24T08:15:35;20.20;24.86
67555;HTU21D;54385;53.516;49.456;2023-04-24T08:18:02;20.30;24.30
67555;HTU21D;54385;53.516;49.456;2023-04-24T08:20:38;20.40;23.98
67555;HTU21D;54385;53.516;49.456;2023-04-24T08:23:05;20.43;23.41
67555;HTU21D;54385;53.516;49.456;2023-04-24T08:25:32;20.37;23.91
67555;HTU21D;54385;53.516;49.456;2023-04-24T08:28:02;20.45;23.47
67555;HTU21D;54385;53.516;49.456;2023-04-24T08:30:30;20.63;23.63
67555;HTU21D;54385;53.516;49.456;2023-04-24T08:32:57;20.68;23.27
67555;HTU21D;54385;53.516;49.456;2023-04-24T08:35:23;20.77;22.70
67555;HTU21D;54385;53.516;49.456;2023-04-24T08:37:54;20.71;22.97
67555;HTU21D;54385;53.516;49.456;2023-04-24T08:40:27;20.75;21.15
67555;HTU21D;54385;53.516;49.456;2023-04-24T08:43:14;20.62;21.78
67555;HTU21D;54385;53.516;49.456;2023-04-24T08:45:42;20.72;22.26
67555;HTU21D;54385;53.516;49.456;2023-04-24T08:48:09;20.83;21.85
67555;HTU21D;54385;53.516;49.456;2023-04-24T08:50:36;20.80;22.81
67555;HTU21D;54385;53.516;49.456;2023-04-24T08:53:04;20.87;22.37
67555;HTU21D;54385;53.516;49.456;2023-04-24T08:55:32;21.02;23.35
67555;HTU21D;54385;53.516;49.456;2023-04-24T08:58:00;21.03;22.51
67555;HTU21D;54385;53.516;49.456;2023-04-24T09:00:27;20.88;22.97
67555;HTU21D;54385;53.516;49.456;2023-04-24T09:02:55;20.93;22.71
67555;HTU21D;54385;53.516;49.456;2023-04-24T09:05:22;20.96;23.11
67555;HTU21D;54385;53.516;49.456;2023-04-24T09:07:56;21.18;22.54
67555;HTU21D;54385;53.516;49.456;2023-04-24T09:10:24;21.08;22.74
67555;HTU21D;54385;53.516;49.456;2023-04-24T09:12:52;21.19;23.07
67555;HTU21D;54385;53.516;49.456;2023-04-24T09:15:19;21.21;22.90
67555;HTU21D;54385;53.516;49.456;2023-04-24T09:17:47;21.30;22.86
67555;HTU21D;54385;53.516;49.456;2023-04-24T09:20:13;21.32;23.00
67555;HTU21D;54385;53.516;49.456;2023-04-24T09:22:40;21.25;22.57
67555;HTU21D;54385;53.516;49.456;2023-04-24T09:25:08;21.29;22.67
67555;HTU21D;54385;53.516;49.456;2023-04-24T09:27:35;21.31;22.57
67555;HTU21D;54385;53.516;49.456;2023-04-24T09:30:02;21.20;22.90
67555;HTU21D;54385;53.516;49.456;2023-04-24T09:32:29;21.28;22.85
67555;HTU21D;54385;53.516;49.456;2023-04-24T09:35:11;21.43;23.16
67555;HTU21D;54385;53.516;49.456;2023-04-24T09:37:38;21.60;22.98
67555;HTU21D;54385;53.516;49.456;2023-04-24T09:40:19;21.72;22.77
67555;HTU21D;54385;53.516;49.456;2023-04-24T09:42:51;21.88;22.48
67555;HTU21D;54385;53.516;49.456;2023-04-24T09:45:20;22.04;22.31
67555;HTU21D;54385;53.516;49.456;2023-04-24T09:47:51;22.18;21.62
67555;HTU21D;54385;53.516;49.456;2023-04-24T09:50:19;22.48;21.40
67555;HTU21D;54385;53.516;49.456;2023-04-24T09:52:56;22.84;21.11
67555;HTU21D;54385;53.516;49.456;2023-04-24T09:55:22;23.16;20.70
67555;HTU21D;54385;53.516;49.456;2023-04-24T09:57:56;23.53;19.85
67555;HTU21D;54385;53.516;49.456;2023-04-24T10:02:50;24.39;19.22
67555;HTU21D;54385;53.516;49.456;2023-04-24T10:05:18;24.72;18.99
67555;HTU21D;54385;53.516;49.456;2023-04-24T10:07:45;24.92;18.23
67555;HTU21D;54385;53.516;49.456;2023-04-24T10:10:13;25.42;18.02
67555;HTU21D;54385;53.516;49.456;2023-04-24T10:12:39;25.53;18.22
67555;HTU21D;54385;53.516;49.456;2023-04-24T10:15:07;25.56;17.30
67555;HTU21D;54385;53.516;49.456;2023-04-24T10:17:35;25.72;17.62
67555;HTU21D;54385;53.516;49.456;2023-04-24T10:20:03;26.07;17.18
67555;HTU21D;54385;53.516;49.456;2023-04-24T10:22:32;26.49;16.71
67555;HTU21D;54385;53.516;49.456;2023-04-24T10:24:59;26.56;16.34
67555;HTU21D;54385;53.516;49.456;2023-04-24T10:27:26;26.57;16.45
67555;HTU21D;54385;53.516;49.456;2023-04-24T10:29:53;26.61;16.57
67555;HTU21D;54385;53.516;49.456;2023-04-24T10:32:21;26.64;16.48
67555;HTU21D;54385;53.516;49.456;2023-04-24T10:34:47;26.68;16.63
67555;HTU21D;54385;53.516;49.456;2023-04-24T10:37:14;26.66;16.39
67555;HTU21D;54385;53.516;49.456;2023-04-24T10:39:47;26.75;16.51
67555;HTU21D;54385;53.516;49.456;2023-04-24T10:42:19;26.97;15.79
67555;HTU21D;54385;53.516;49.456;2023-04-24T10:44:47;27.23;15.48
67555;HTU21D;54385;53.516;49.456;2023-04-24T10:47:15;27.50;15.39
67555;HTU21D;54385;53.516;49.456;2023-04-24T10:49:42;27.58;15.34
67555;HTU21D;54385;53.516;49.456;2023-04-24T10:52:09;27.31;15.96
67555;HTU21D;54385;53.516;49.456;2023-04-24T10:54:45;27.40;15.10
67555;HTU21D;54385;53.516;49.456;2023-04-24T10:59:51;27.69;15.07
67555;HTU21D;54385;53.516;49.456;2023-04-24T11:02:37;27.37;15.26
67555;HTU21D;54385;53.516;49.456;2023-04-24T11:05:07;27.29;15.08
67555;HTU21D;54385;53.516;49.456;2023-04-24T11:08:16;27.13;15.00
67555;HTU21D;54385;53.516;49.456;2023-04-24T11:11:15;27.67;14.42
67555;HTU21D;54385;53.516;49.456;2023-04-24T11:16:39;27.58;14.05
67555;HTU21D;54385;53.516;49.456;2023-04-24T11:21:46;27.78;14.16
67555;HTU21D;54385;53.516;49.456;2023-04-24T11:27:17;27.71;14.13
67555;HTU21D;54385;53.516;49.456;2023-04-24T11:29:58;27.93;13.81
67555;HTU21D;54385;53.516;49.456;2023-04-24T11:35:04;27.68;14.32
67555;HTU21D;54385;53.516;49.456;2023-04-24T11:37:39;28.09;13.97
67555;HTU21D;54385;53.516;49.456;2023-04-24T11:40:11;28.34;13.53
67555;HTU21D;54385;53.516;49.456;2023-04-24T11:42:48;28.72;13.22
67555;HTU21D;54385;53.516;49.456;2023-04-24T11:45:18;28.67;13.13
67555;HTU21D;54385;53.516;49.456;2023-04-24T11:47:45;29.07;13.33
67555;HTU21D;54385;53.516;49.456;2023-04-24T11:50:13;29.54;12.76
67555;HTU21D;54385;53.516;49.456;2023-04-24T11:52:42;29.50;12.59
67555;HTU21D;54385;53.516;49.456;2023-04-24T11:57:49;29.74;12.32
67555;HTU21D;54385;53.516;49.456;2023-04-24T12:00:20;29.71;12.15
67555;HTU21D;54385;53.516;49.456;2023-04-24T12:02:48;29.82;12.21
67555;HTU21D;54385;53.516;49.456;2023-04-24T12:05:25;29.50;12.15
67555;HTU21D;54385;53.516;49.456;2023-04-24T12:07:53;29.89;12.05
67555;HTU21D;54385;53.516;49.456;2023-04-24T12:10:28;30.07;11.59
67555;HTU21D;54385;53.516;49.456;2023-04-24T12:13:03;29.87;11.94
67555;HTU21D;54385;53.516;49.456;2023-04-24T12:15:30;29.97;12.27
67555;HTU21D;54385;53.516;49.456;2023-04-24T12:17:56;30.34;11.75
67555;HTU21D;54385;53.516;49.456;2023-04-24T12:20:28;30.47;11.56
67555;HTU21D;54385;53.516;49.456;2023-04-24T12:22:57;30.94;11.15
67555;HTU21D;54385;53.516;49.456;2023-04-24T12:25:25;30.34;11.87
67555;HTU21D;54385;53.516;49.456;2023-04-24T12:28:09;30.18;11.70
67555;HTU21D;54385;53.516;49.456;2023-04-24T12:30:48;30.54;11.21
67555;HTU21D;54385;53.516;49.456;2023-04-24T12:33:19;30.44;11.46
67555;HTU21D;54385;53.516;49.456;2023-04-24T12:35:48;30.59;11.69
67555;HTU21D;54385;53.516;49.456;2023-04-24T12:38:15;31.02;11.39
67555;HTU21D;54385;53.516;49.456;2023-04-24T12:40:44;31.30;11.13
67555;HTU21D;54385;53.516;49.456;2023-04-24T12:43:18;31.50;10.75
67555;HTU21D;54385;53.516;49.456;2023-04-24T12:45:47;31.09;10.88
67555;HTU21D;54385;53.516;49.456;2023-04-24T12:48:13;31.20;10.75
67555;HTU21D;54385;53.516;49.456;2023-04-24T12:50:40;31.42;10.52
67555;HTU21D;54385;53.516;49.456;2023-04-24T12:53:08;31.75;10.46
67555;HTU21D;54385;53.516;49.456;2023-04-24T12:55:35;31.60;10.30
67555;HTU21D;54385;53.516;49.456;2023-04-24T12:58:02;31.74;10.36
67555;HTU21D;54385;53.516;49.456;2023-04-24T13:00:29;31.40;10.53
67555;HTU21D;54385;53.516;49.456;2023-04-24T13:02:55;31.14;11.35
67555;HTU21D;54385;53.516;49.456;2023-04-24T13:05:22;31.61;10.44
67555;HTU21D;54385;53.516;49.456;2023-04-24T13:07:48;31.46;10.59
67555;HTU21D;54385;53.516;49.456;2023-04-24T13:10:15;31.30;10.46
67555;HTU21D;54385;53.516;49.456;2023-04-24T13:12:42;30.80;11.07
67555;HTU21D;54385;53.516;49.456;2023-04-24T13:15:13;30.47;11.39
67555;HTU21D;54385;53.516;49.456;2023-04-24T13:17:40;30.46;11.25
67555;HTU21D;54385;53.516;49.456;2023-04-24T13:20:06;30.74;11.14
67555;HTU21D;54385;53.516;49.456;2023-04-24T13:22:33;30.17;11.75
67555;HTU21D;54385;53.516;49.456;2023-04-24T13:24:59;30.64;11.32
67555;HTU21D;54385;53.516;49.456;2023-04-24T13:27:27;30.74;11.38
67555;HTU21D;54385;53.516;49.456;2023-04-24T13:29:53;30.95;10.94
67555;HTU21D;54385;53.516;49.456;2023-04-24T13:32:20;30.86;10.98
67555;HTU21D;54385;53.516;49.456;2023-04-24T13:34:46;30.19;11.51
67555;HTU21D;54385;53.516;49.456;2023-04-24T13:37:13;28.92;12.52
67555;HTU21D;54385;53.516;49.456;2023-04-24T13:39:39;28.25;12.99
67555;HTU21D;54385;53.516;49.456;2023-04-24T13:42:07;27.43;13.67
67555;HTU21D;54385;53.516;49.456;2023-04-24T13:44:33;27.16;13.93
67555;HTU21D;54385;53.516;49.456;2023-04-24T13:46:59;26.26;14.74
67555;HTU21D;54385;53.516;49.456;2023-04-24T13:49:27;25.84;15.11
67555;HTU21D;54385;53.516;49.456;2023-04-24T13:51:54;25.43;15.74
67555;HTU21D;54385;53.516;49.456;2023-04-24T13:54:21;24.91;16.18
67555;HTU21D;54385;53.516;49.456;2023-04-24T13:56:50;24.45;16.83
67555;HTU21D;54385;53.516;49.456;2023-04-24T13:59:17;24.21;16.90
67555;HTU21D;54385;53.516;49.456;2023-04-24T14:01:43;24.11;17.35
67555;HTU21D;54385;53.516;49.456;2023-04-24T14:04:11;23.72;17.83
67555;HTU21D;54385;53.516;49.456;2023-04-24T14:06:37;23.58;17.82
67555;HTU21D;54385;53.516;49.456;2023-04-24T14:09:05;23.39;18.42
67555;HTU21D;54385;53.516;49.456;2023-04-24T14:11:33;23.70;17.93
67555;HTU21D;54385;53.516;49.456;2023-04-24T14:14:00;23.76;17.98
67555;HTU21D;54385;53.516;49.456;2023-04-24T14:16:28;23.66;18.33
67555;HTU21D;54385;53.516;49.456;2023-04-24T14:18:54;23.53;18.28
67555;HTU21D;54385;53.516;49.456;2023-04-24T14:21:21;23.54;18.38
67555;HTU21D;54385;53.516;49.456;2023-04-24T14:23:47;23.24;18.83
67555;HTU21D;54385;53.516;49.456;2023-04-24T14:26:13;22.91;19.15
67555;HTU21D;54385;53.516;49.456;2023-04-24T14:28:40;22.58;19.65
67555;HTU21D;54385;53.516;49.456;2023-04-24T14:31:06;22.48;19.96
67555;HTU21D;54385;53.516;49.456;2023-04-24T14:33:34;22.44;20.07
67555;HTU21D;54385;53.516;49.456;2023-04-24T14:36:03;22.69;20.02
67555;HTU21D;54385;53.516;49.456;2023-04-24T14:38:31;22.91;19.79
67555;HTU21D;54385;53.516;49.456;2023-04-24T14:40:58;22.91;19.89
67555;HTU21D;54385;53.516;49.456;2023-04-24T14:43:24;22.63;20.42
67555;HTU21D;54385;53.516;49.456;2023-04-24T14:45:50;22.43;21.22
67555;HTU21D;54385;53.516;49.456;2023-04-24T14:48:17;22.48;21.06
67555;HTU21D;54385;53.516;49.456;2023-04-24T14:50:43;22.58;20.96
67555;HTU21D;54385;53.516;49.456;2023-04-24T14:53:11;22.75;20.98
67555;HTU21D;54385;53.516;49.456;2023-04-24T14:55:38;22.77;20.79
67555;HTU21D;54385;53.516;49.456;2023-04-24T14:58:04;22.72;21.12
67555;HTU21D;54385;53.516;49.456;2023-04-24T15:00:30;22.32;21.80
67555;HTU21D;54385;53.516;49.456;2023-04-24T15:02:57;22.07;22.26
67555;HTU21D;54385;53.516;49.456;2023-04-24T15:05:23;21.96;22.54
67555;HTU21D;54385;53.516;49.456;2023-04-24T15:07:50;21.78;22.79
67555;HTU21D;54385;53.516;49.456;2023-04-24T15:10:17;21.39;22.92
67555;HTU21D;54385;53.516;49.456;2023-04-24T15:12:44;21.14;23.69
67555;HTU21D;54385;53.516;49.456;2023-04-24T15:15:11;21.00;23.89
67555;HTU21D;54385;53.516;49.456;2023-04-24T15:17:37;20.99;23.85
67555;HTU21D;54385;53.516;49.456;2023-04-24T15:20:04;20.98;24.33
67555;HTU21D;54385;53.516;49.456;2023-04-24T15:22:32;20.91;24.33
67555;HTU21D;54385;53.516;49.456;2023-04-24T15:24:58;20.91;24.19
67555;HTU21D;54385;53.516;49.456;2023-04-24T15:27:25;20.79;24.24
67555;HTU21D;54385;53.516;49.456;2023-04-24T15:29:51;20.68;24.54